createdAt,value
2018-08-31T00:01:05.008Z,20.33
2018-08-31T00:03:43.844Z,25.77
2018-08-31T00:06:22.408Z,21.30
2018-08-31T00:08:52.810Z,23.67
2018-08-31T00:12:45.557Z,23.70
2018-08-31T00:15:12.708Z,23.33
2018-08-31T00:17:41.092Z,21.10
2018-08-31T00:20:09.273Z,22.00
2018-08-31T00:22:36.462Z,22.17
2018-08-31T00:25:09.312Z,22.17
2018-08-31T00:27:48.017Z,21.17
2018-08-31T00:30:19.765Z,20.80
2018-08-31T00:35:01.835Z,20.83
2018-08-31T00:37:46.005Z,22.00
2018-08-31T00:41:22.839Z,27.63
2018-08-31T00:44:03.005Z,23.37
2018-08-31T00:46:30.116Z,23.20
2018-08-31T00:48:57.358Z,20.57
2018-08-31T00:51:24.502Z,24.07
2018-08-31T00:53:51.683Z,23.40
2018-08-31T00:56:18.790Z,22.13
2018-08-31T00:58:45.937Z,21.90
2018-08-31T01:01:13.080Z,25.90
2018-08-31T01:03:40.209Z,23.30
2018-08-31T01:06:07.376Z,20.70
2018-08-31T01:08:34.516Z,18.97
2018-08-31T01:11:01.950Z,22.90
2018-08-31T01:13:29.117Z,19.20
2018-08-31T01:15:56.313Z,23.27
2018-08-31T01:18:23.496Z,22.60
2018-08-31T01:20:50.658Z,23.23
2018-08-31T01:23:17.824Z,23.57
2018-08-31T01:25:44.996Z,21.43
2018-08-31T01:28:12.142Z,21.97
2018-08-31T01:30:39.301Z,23.73
2018-08-31T01:33:06.440Z,23.47
2018-08-31T01:35:33.589Z,22.87
2018-08-31T01:38:00.750Z,24.57
2018-08-31T01:40:27.899Z,25.07
2018-08-31T01:42:55.061Z,22.87
2018-08-31T01:45:22.220Z,22.40
2018-08-31T01:47:49.382Z,21.40
2018-08-31T01:50:16.508Z,21.00
2018-08-31T01:52:43.726Z,22.73
2018-08-31T01:55:10.817Z,21.47
2018-08-31T01:57:37.972Z,20.90
2018-08-31T02:00:05.128Z,20.97
2018-08-31T02:02:32.309Z,21.73
2018-08-31T02:04:59.494Z,21.97
2018-08-31T02:07:26.895Z,22.33
2018-08-31T02:09:54.026Z,22.90
2018-08-31T02:12:21.196Z,25.17
2018-08-31T02:14:48.344Z,19.93
2018-08-31T02:17:15.509Z,24.13
2018-08-31T02:19:42.652Z,23.03
2018-08-31T02:22:09.813Z,21.30
2018-08-31T02:24:36.978Z,21.27
2018-08-31T02:27:04.179Z,22.43
2018-08-31T02:29:31.345Z,21.43
2018-08-31T02:31:58.612Z,24.80
2018-08-31T02:34:25.756Z,22.37
2018-08-31T02:36:52.889Z,20.80
2018-08-31T02:39:20.091Z,26.17
2018-08-31T02:41:47.168Z,21.47
2018-08-31T02:44:14.293Z,23.90
2018-08-31T02:46:41.464Z,23.30
2018-08-31T02:49:08.589Z,21.13
2018-08-31T02:51:35.772Z,21.27
2018-08-31T02:54:02.921Z,22.60
2018-08-31T02:56:30.088Z,23.10
2018-08-31T02:58:57.288Z,22.93
2018-08-31T03:01:24.411Z,21.50
2018-08-31T03:03:51.598Z,22.77
2018-08-31T03:06:18.784Z,21.97
2018-08-31T03:08:45.935Z,22.23
2018-08-31T03:11:13.117Z,25.47
2018-08-31T03:13:40.288Z,25.97
2018-08-31T03:16:07.473Z,21.20
2018-08-31T03:18:34.702Z,22.30
2018-08-31T03:21:02.625Z,20.70
2018-08-31T03:23:29.768Z,20.73
2018-08-31T03:25:57.121Z,19.70
2018-08-31T03:28:24.272Z,22.33
2018-08-31T03:30:51.422Z,21.17
2018-08-31T03:33:18.571Z,25.07
2018-08-31T03:35:45.721Z,22.57
2018-08-31T03:38:12.900Z,21.77
2018-08-31T03:40:40.057Z,21.33
2018-08-31T03:43:07.235Z,22.60
2018-08-31T03:45:34.376Z,22.03
2018-08-31T03:48:01.532Z,25.73
2018-08-31T03:50:28.661Z,22.20
2018-08-31T03:52:55.778Z,23.13
2018-08-31T03:55:22.897Z,21.60
2018-08-31T03:57:50.021Z,24.43
2018-08-31T04:00:17.172Z,20.73
2018-08-31T04:02:44.337Z,23.27
2018-08-31T04:05:11.518Z,23.23
2018-08-31T04:07:38.651Z,22.63
2018-08-31T04:10:06.108Z,22.83
2018-08-31T04:12:33.273Z,22.60
2018-08-31T04:15:00.486Z,20.87
2018-08-31T04:17:27.568Z,21.53
2018-08-31T04:19:54.684Z,23.20
2018-08-31T04:22:21.872Z,23.27
2018-08-31T04:24:49.265Z,23.97
2018-08-31T04:27:16.435Z,23.50
2018-08-31T04:29:43.613Z,22.40
2018-08-31T04:32:10.906Z,25.33
2018-08-31T04:34:38.069Z,22.73
2018-08-31T04:37:05.245Z,22.40
2018-08-31T04:39:32.368Z,23.57
2018-08-31T04:41:59.531Z,20.17
2018-08-31T04:44:26.648Z,22.83
2018-08-31T04:46:53.829Z,22.97
2018-08-31T04:49:20.996Z,23.37
2018-08-31T04:51:48.138Z,20.57
2018-08-31T04:54:15.307Z,25.50
2018-08-31T04:56:42.453Z,23.43
2018-08-31T04:59:09.613Z,21.83
2018-08-31T05:01:36.752Z,22.60
2018-08-31T05:04:03.882Z,23.17
2018-08-31T05:06:31.039Z,21.80
2018-08-31T05:08:58.172Z,20.53
2018-08-31T05:11:25.324Z,20.53
2018-08-31T05:13:52.482Z,22.90
2018-08-31T05:16:19.679Z,21.10
2018-08-31T05:18:46.808Z,26.40
2018-08-31T05:21:13.965Z,24.17
2018-08-31T05:23:41.720Z,24.80
2018-08-31T05:26:08.868Z,20.73
2018-08-31T05:28:36.065Z,25.43
2018-08-31T05:31:03.252Z,25.03
2018-08-31T05:33:30.421Z,22.47
2018-08-31T05:35:57.574Z,26.37
2018-08-31T05:38:24.901Z,27.57
2018-08-31T05:40:52.070Z,21.23
2018-08-31T05:43:19.241Z,21.27
2018-08-31T05:45:46.408Z,23.70
2018-08-31T05:48:13.569Z,22.93
2018-08-31T05:50:40.696Z,23.73
2018-08-31T05:53:07.892Z,23.43
2018-08-31T05:55:35.042Z,22.50
2018-08-31T05:58:02.189Z,22.03
2018-08-31T06:00:29.555Z,23.70
2018-08-31T06:02:56.729Z,23.17
2018-08-31T06:05:24.066Z,25.40
2018-08-31T06:07:51.235Z,24.30
2018-08-31T06:10:18.368Z,23.97
2018-08-31T06:12:45.514Z,22.83
2018-08-31T06:15:12.661Z,24.87
2018-08-31T06:17:39.780Z,22.40
2018-08-31T06:20:07.184Z,22.73
2018-08-31T06:22:34.317Z,21.20
2018-08-31T06:25:01.497Z,21.13
2018-08-31T06:27:28.707Z,22.93
2018-08-31T06:29:55.884Z,21.23
2018-08-31T06:32:23.052Z,22.67
2018-08-31T06:34:50.209Z,26.57
2018-08-31T06:37:17.371Z,30.73
2018-08-31T06:39:44.521Z,21.33
2018-08-31T06:42:11.680Z,19.73
2018-08-31T06:44:38.963Z,21.77
2018-08-31T06:47:06.113Z,22.70
2018-08-31T06:49:33.306Z,21.40
2018-08-31T06:52:00.626Z,22.50
2018-08-31T06:54:27.772Z,21.57
2018-08-31T06:56:54.934Z,23.13
2018-08-31T06:59:22.092Z,22.43
2018-08-31T07:01:49.264Z,21.67
2018-08-31T07:04:16.441Z,23.37
2018-08-31T07:06:43.628Z,23.83
2018-08-31T07:09:11.382Z,21.93
2018-08-31T07:11:38.837Z,20.43
2018-08-31T07:14:06.300Z,22.23
2018-08-31T07:16:33.492Z,21.17
2018-08-31T07:19:00.649Z,20.00
2018-08-31T07:21:27.803Z,20.20
2018-08-31T07:23:55.504Z,22.13
2018-08-31T07:26:22.789Z,24.10
2018-08-31T07:28:49.921Z,20.37
2018-08-31T07:31:17.079Z,27.20
2018-08-31T07:33:44.409Z,19.87
2018-08-31T07:36:11.653Z,21.80
2018-08-31T07:38:38.779Z,21.50
2018-08-31T07:41:05.929Z,19.50
2018-08-31T07:43:33.084Z,18.67
2018-08-31T07:46:00.245Z,18.93
2018-08-31T07:48:27.392Z,19.33
2018-08-31T07:50:54.561Z,19.93
2018-08-31T07:53:21.711Z,21.27
2018-08-31T07:55:48.888Z,21.17
2018-08-31T07:58:16.073Z,16.53
2018-08-31T08:00:43.262Z,17.23
2018-08-31T08:03:10.444Z,16.10
2018-08-31T08:05:37.649Z,16.57
2018-08-31T08:08:04.823Z,17.53
2018-08-31T08:10:32.008Z,17.03
2018-08-31T08:12:59.183Z,16.33
2018-08-31T08:15:26.321Z,17.00
2018-08-31T08:17:53.495Z,17.73
2018-08-31T08:20:20.788Z,15.77
2018-08-31T08:22:47.984Z,14.27
2018-08-31T08:25:15.189Z,15.07
2018-08-31T08:27:42.350Z,16.73
2018-08-31T08:30:09.520Z,13.93
2018-08-31T08:32:36.636Z,14.83
2018-08-31T08:35:03.796Z,13.53
2018-08-31T08:37:30.947Z,15.30
2018-08-31T08:39:58.098Z,15.13
2018-08-31T08:42:25.373Z,17.33
2018-08-31T08:44:52.465Z,16.67
2018-08-31T08:47:19.649Z,13.97
2018-08-31T08:49:46.802Z,12.13
2018-08-31T08:52:13.956Z,15.30
2018-08-31T08:54:41.105Z,14.07
2018-08-31T08:57:08.505Z,13.93
2018-08-31T08:59:35.657Z,12.10
2018-08-31T09:02:02.833Z,13.10
2018-08-31T09:04:29.950Z,14.33
2018-08-31T09:06:57.113Z,11.80
2018-08-31T09:09:24.317Z,17.07
2018-08-31T09:11:51.529Z,18.60
2018-08-31T09:14:18.704Z,17.17
2018-08-31T09:16:45.892Z,13.23
2018-08-31T09:19:13.042Z,11.63
2018-08-31T09:21:40.206Z,16.37
2018-08-31T09:24:07.348Z,14.40
2018-08-31T09:26:34.540Z,15.88
2018-08-31T09:29:01.713Z,17.00
2018-08-31T09:31:28.874Z,12.25
2018-08-31T09:33:56.409Z,12.30
2018-08-31T09:36:23.606Z,12.53
2018-08-31T09:38:50.767Z,12.75
2018-08-31T09:41:17.928Z,12.47
2018-08-31T09:43:45.131Z,12.20
2018-08-31T09:46:12.247Z,13.08
2018-08-31T09:48:39.425Z,12.80
2018-08-31T09:51:06.592Z,13.62
2018-08-31T09:53:33.776Z,12.40
2018-08-31T09:56:00.951Z,12.28
2018-08-31T09:58:28.089Z,12.33
2018-08-31T10:01:00.909Z,14.68
2018-08-31T10:03:28.078Z,15.70
2018-08-31T10:05:55.916Z,14.65
2018-08-31T10:08:24.948Z,11.63
2018-08-31T10:10:52.233Z,11.88
2018-08-31T10:13:19.313Z,11.20
2018-08-31T10:15:46.462Z,11.12
2018-08-31T10:18:13.639Z,11.40
2018-08-31T10:20:40.789Z,11.93
2018-08-31T10:23:08.128Z,12.85
2018-08-31T10:25:35.481Z,11.50
2018-08-31T10:28:02.937Z,10.30
2018-08-31T10:30:30.077Z,12.35
2018-08-31T10:32:57.436Z,11.97
2018-08-31T10:35:24.553Z,12.43
2018-08-31T10:37:51.712Z,10.88
2018-08-31T10:40:18.862Z,9.25
2018-08-31T10:42:46.029Z,11.12
2018-08-31T10:45:13.180Z,12.35
2018-08-31T10:47:40.330Z,9.90
2018-08-31T10:50:08.005Z,9.28
2018-08-31T10:52:35.164Z,11.30
2018-08-31T10:55:02.397Z,9.60
2018-08-31T10:57:29.560Z,12.05
2018-08-31T10:59:56.724Z,10.00
2018-08-31T11:02:23.846Z,11.40
2018-08-31T11:04:50.999Z,10.43
2018-08-31T11:07:18.145Z,10.45
2018-08-31T11:09:45.301Z,9.40
2018-08-31T11:12:12.482Z,8.63
2018-08-31T11:14:39.649Z,9.38
2018-08-31T11:17:06.870Z,8.95
2018-08-31T11:19:34.002Z,8.63
2018-08-31T11:22:01.168Z,7.92
2018-08-31T11:24:28.313Z,8.13
2018-08-31T11:26:55.464Z,8.43
2018-08-31T11:29:22.631Z,7.28
2018-08-31T11:31:49.777Z,8.38
2018-08-31T11:34:17.133Z,10.20
2018-08-31T11:36:44.308Z,9.50
2018-08-31T11:39:12.146Z,9.20
2018-08-31T11:41:39.475Z,9.93
2018-08-31T11:44:06.642Z,7.65
2018-08-31T11:46:33.955Z,12.20
2018-08-31T11:49:01.256Z,7.72
2018-08-31T11:51:28.409Z,8.08
2018-08-31T11:53:55.590Z,7.58
2018-08-31T11:56:22.892Z,8.78
2018-08-31T11:58:50.073Z,8.58
2018-08-31T12:01:17.322Z,8.55
2018-08-31T12:03:44.429Z,7.28
2018-08-31T12:06:11.585Z,6.67
2018-08-31T12:08:38.973Z,8.73
2018-08-31T12:11:06.118Z,9.35
2018-08-31T12:13:33.296Z,8.13
2018-08-31T12:16:00.485Z,8.05
2018-08-31T12:18:27.765Z,8.85
2018-08-31T12:20:54.930Z,8.15
2018-08-31T12:23:22.139Z,7.45
2018-08-31T12:25:49.312Z,9.73
2018-08-31T12:28:16.474Z,11.05
2018-08-31T12:30:43.636Z,8.10
2018-08-31T12:33:10.781Z,6.67
2018-08-31T12:35:37.936Z,12.82
2018-08-31T12:38:05.109Z,8.88
2018-08-31T12:40:32.257Z,8.05
2018-08-31T12:42:59.436Z,8.70
2018-08-31T12:45:26.576Z,9.53
2018-08-31T12:47:53.758Z,8.03
2018-08-31T12:50:20.932Z,8.05
2018-08-31T12:52:48.048Z,7.90
2018-08-31T12:55:15.532Z,9.08
2018-08-31T12:57:42.663Z,8.78
2018-08-31T13:00:09.830Z,7.83
2018-08-31T13:02:36.945Z,7.40
2018-08-31T13:05:04.721Z,9.43
2018-08-31T13:07:31.854Z,8.43
2018-08-31T13:09:59.020Z,8.50
2018-08-31T13:12:26.198Z,7.80
2018-08-31T13:14:53.383Z,10.08
2018-08-31T13:17:20.538Z,8.18
2018-08-31T13:19:48.025Z,9.63
2018-08-31T13:22:15.151Z,10.32
2018-08-31T13:24:42.303Z,11.70
2018-08-31T13:27:09.456Z,7.53
2018-08-31T13:29:36.627Z,11.30
2018-08-31T13:32:03.752Z,8.10
2018-08-31T13:34:30.938Z,8.35
2018-08-31T13:36:58.089Z,9.28
2018-08-31T13:39:25.278Z,12.50
2018-08-31T13:41:52.391Z,11.15
2018-08-31T13:44:19.552Z,9.80
2018-08-31T13:46:46.672Z,9.95
2018-08-31T13:49:13.956Z,9.43
2018-08-31T13:51:41.308Z,11.85
2018-08-31T13:54:08.471Z,8.90
2018-08-31T13:56:35.639Z,8.28
2018-08-31T13:59:03.286Z,10.10
2018-08-31T14:01:30.417Z,11.10
2018-08-31T14:03:57.564Z,8.03
2018-08-31T14:06:24.705Z,8.83
2018-08-31T14:08:51.837Z,11.75
2018-08-31T14:11:19.223Z,12.73
2018-08-31T14:13:46.340Z,9.70
2018-08-31T14:16:13.507Z,12.65
2018-08-31T14:18:40.643Z,10.65
2018-08-31T14:21:08.007Z,11.73
2018-08-31T14:23:35.113Z,10.28
2018-08-31T14:26:02.286Z,10.65
2018-08-31T14:28:29.440Z,10.40
2018-08-31T14:30:56.571Z,9.13
2018-08-31T14:33:23.712Z,11.12
2018-08-31T14:35:50.825Z,12.28
2018-08-31T14:38:17.977Z,9.78
2018-08-31T14:40:45.124Z,10.65
2018-08-31T14:43:12.237Z,11.78
2018-08-31T14:45:39.658Z,12.05
2018-08-31T14:48:06.827Z,13.03
2018-08-31T14:50:33.977Z,12.10
2018-08-31T14:53:01.176Z,11.83
2018-08-31T14:55:28.345Z,11.78
2018-08-31T14:57:55.499Z,10.78
2018-08-31T15:00:22.671Z,11.97
2018-08-31T15:02:49.804Z,11.03
2018-08-31T15:05:16.945Z,11.60
2018-08-31T15:07:44.077Z,9.28
2018-08-31T15:10:13.093Z,10.23
2018-08-31T15:12:40.438Z,12.35
2018-08-31T15:15:07.601Z,9.28
2018-08-31T15:17:34.717Z,11.75
2018-08-31T15:20:01.887Z,11.05
2018-08-31T15:22:29.051Z,11.18
2018-08-31T15:24:56.168Z,9.93
2018-08-31T15:27:23.313Z,11.73
2018-08-31T15:29:50.453Z,12.15
2018-08-31T15:32:17.882Z,9.85
2018-08-31T15:34:45.033Z,9.63
2018-08-31T15:37:12.181Z,11.05
2018-08-31T15:39:39.352Z,10.00
2018-08-31T15:42:06.552Z,10.58
2018-08-31T15:44:33.827Z,11.35
2018-08-31T15:47:00.997Z,10.63
2018-08-31T15:49:28.305Z,10.13
2018-08-31T15:51:55.473Z,10.25
2018-08-31T15:54:22.919Z,10.68
2018-08-31T15:56:50.095Z,7.67
2018-08-31T15:59:17.273Z,7.70
2018-08-31T16:01:44.424Z,8.40
2018-08-31T16:04:11.588Z,9.18
2018-08-31T16:06:38.749Z,7.55
2018-08-31T16:09:06.502Z,9.03
2018-08-31T16:11:33.680Z,9.43
2018-08-31T16:14:00.796Z,9.40
2018-08-31T16:16:27.957Z,10.93
2018-08-31T16:18:55.166Z,7.78
2018-08-31T16:21:22.321Z,8.63
2018-08-31T16:23:49.488Z,7.40
2018-08-31T16:26:16.892Z,9.88
2018-08-31T16:28:44.072Z,12.03
2018-08-31T16:31:11.500Z,11.45
2018-08-31T16:33:38.646Z,10.00
2018-08-31T16:36:05.601Z,13.08
2018-08-31T16:38:32.747Z,8.73
2018-08-31T16:41:00.011Z,10.32
2018-08-31T16:43:27.180Z,12.93
2018-08-31T16:45:54.373Z,10.68
2018-08-31T16:48:21.564Z,11.60
2018-08-31T16:50:48.756Z,11.15
2018-08-31T16:53:15.945Z,10.50
2018-08-31T16:55:43.104Z,10.05
2018-08-31T16:58:10.292Z,18.87
2018-08-31T17:00:37.714Z,28.73
2018-08-31T17:03:04.893Z,13.30
2018-08-31T17:05:32.041Z,11.25
2018-08-31T17:07:59.201Z,8.10
2018-08-31T17:10:26.384Z,11.05
2018-08-31T17:12:53.609Z,16.50
2018-08-31T17:15:20.767Z,13.03
2018-08-31T17:17:47.917Z,12.65
2018-08-31T17:20:15.068Z,15.93
2018-08-31T17:22:42.238Z,10.38
2018-08-31T17:25:09.723Z,11.45
2018-08-31T17:27:42.645Z,16.93
2018-08-31T17:30:15.506Z,25.43
2018-08-31T17:32:48.517Z,13.25
2018-08-31T17:35:21.572Z,32.53
2018-08-31T17:37:48.734Z,14.25
2018-08-31T17:40:15.869Z,12.07
2018-08-31T17:42:43.033Z,33.60
2018-08-31T17:45:11.584Z,19.92
2018-08-31T17:47:38.768Z,54.73
2018-08-31T17:50:06.708Z,39.10
2018-08-31T17:52:33.897Z,24.77
2018-08-31T17:55:01.073Z,14.80
2018-08-31T17:57:28.229Z,10.35
2018-08-31T17:59:55.392Z,9.60
2018-08-31T18:02:22.520Z,11.12
2018-08-31T18:04:49.822Z,16.10
2018-08-31T18:07:16.999Z,19.43
2018-08-31T18:09:44.206Z,9.10
2018-08-31T18:12:11.332Z,11.55
2018-08-31T18:14:38.489Z,34.53
2018-08-31T18:17:06.098Z,16.50
2018-08-31T18:19:33.553Z,16.40
2018-08-31T18:22:00.697Z,13.38
2018-08-31T18:24:27.848Z,10.80
2018-08-31T18:26:55.000Z,12.67
2018-08-31T18:29:22.137Z,11.10
2018-08-31T18:31:49.272Z,12.20
2018-08-31T18:34:16.389Z,11.20
2018-08-31T18:36:43.552Z,15.30
2018-08-31T18:39:10.721Z,12.40
2018-08-31T18:41:38.206Z,16.27
2018-08-31T18:44:05.411Z,11.30
2018-08-31T18:46:32.799Z,14.30
2018-08-31T18:48:59.900Z,11.37
2018-08-31T18:51:27.058Z,12.58
2018-08-31T18:53:54.176Z,11.97
2018-08-31T18:56:21.332Z,11.80
2018-08-31T18:58:48.460Z,12.73
2018-08-31T19:01:15.610Z,11.30
2018-08-31T19:03:42.756Z,12.13
2018-08-31T19:06:10.215Z,13.33
2018-08-31T19:08:37.408Z,14.37
2018-08-31T19:11:04.572Z,12.50
2018-08-31T19:13:31.708Z,14.20
2018-08-31T19:15:58.836Z,12.97
2018-08-31T19:18:26.012Z,14.27
2018-08-31T19:20:53.124Z,21.13
2018-08-31T19:23:20.249Z,17.83
2018-08-31T19:25:47.404Z,17.27
2018-08-31T19:28:14.567Z,15.43
2018-08-31T19:30:41.749Z,14.17
2018-08-31T19:33:08.900Z,13.87
2018-08-31T19:35:36.021Z,12.37
2018-08-31T19:38:03.803Z,13.30
2018-08-31T19:40:30.972Z,12.80
2018-08-31T19:42:58.373Z,13.30
2018-08-31T19:45:25.533Z,13.00
2018-08-31T19:47:52.685Z,12.33
2018-08-31T19:50:19.818Z,18.77
2018-08-31T19:52:46.997Z,13.67
2018-08-31T19:55:14.145Z,13.83
2018-08-31T19:57:41.289Z,14.70
2018-08-31T20:00:08.454Z,14.57
2018-08-31T20:02:35.640Z,14.13
2018-08-31T20:05:02.825Z,12.93
2018-08-31T20:07:29.944Z,15.47
2018-08-31T20:09:57.149Z,14.83
2018-08-31T20:12:24.277Z,12.17
2018-08-31T20:14:51.688Z,17.70
2018-08-31T20:17:18.849Z,17.00
2018-08-31T20:19:46.022Z,14.30
2018-08-31T20:22:13.169Z,13.87
2018-08-31T20:24:40.457Z,14.57
2018-08-31T20:27:07.617Z,14.27
2018-08-31T20:29:34.853Z,13.17
2018-08-31T20:32:02.039Z,14.07
2018-08-31T20:34:29.208Z,15.57
2018-08-31T20:36:56.365Z,12.07
2018-08-31T20:39:23.553Z,12.77
2018-08-31T20:41:50.734Z,16.07
2018-08-31T20:44:17.873Z,13.73
2018-08-31T20:46:45.320Z,14.53
2018-08-31T20:49:12.446Z,12.43
2018-08-31T20:51:39.613Z,13.17
2018-08-31T20:54:06.747Z,13.43
2018-08-31T20:56:34.052Z,14.47
2018-08-31T20:59:01.249Z,11.47
2018-08-31T21:01:28.743Z,13.03
2018-08-31T21:03:55.932Z,15.93
2018-08-31T21:06:23.153Z,12.17
2018-08-31T21:08:50.293Z,14.63
2018-08-31T21:11:17.444Z,12.70
2018-08-31T21:13:44.565Z,11.33
2018-08-31T21:16:11.692Z,14.97
2018-08-31T21:18:38.808Z,12.87
2018-08-31T21:21:05.968Z,12.57
2018-08-31T21:23:33.129Z,16.33
2018-08-31T21:26:00.285Z,13.73
2018-08-31T21:28:27.447Z,15.00
2018-08-31T21:30:54.622Z,13.40
2018-08-31T21:33:21.780Z,14.97
2018-08-31T21:35:48.947Z,11.27
2018-08-31T21:38:16.084Z,12.87
2018-08-31T21:40:43.243Z,14.27
2018-08-31T21:43:10.380Z,12.97
2018-08-31T21:45:37.556Z,12.90
2018-08-31T21:48:04.776Z,13.67
2018-08-31T21:50:32.396Z,12.63
2018-08-31T21:52:59.581Z,13.03
2018-08-31T21:55:26.850Z,14.13
2018-08-31T21:57:53.937Z,12.83
2018-08-31T22:00:21.663Z,12.47
2018-08-31T22:02:49.864Z,11.80
2018-08-31T22:05:17.036Z,12.33
2018-08-31T22:07:44.249Z,10.50
2018-08-31T22:10:11.580Z,12.23
2018-08-31T22:12:38.728Z,14.53
2018-08-31T22:15:11.550Z,15.70
2018-08-31T22:17:39.090Z,15.07
2018-08-31T22:20:06.538Z,13.67
2018-08-31T22:22:33.709Z,11.63
2018-08-31T22:25:00.871Z,15.33
2018-08-31T22:27:28.033Z,11.10
2018-08-31T22:29:55.190Z,17.87
2018-08-31T22:32:22.316Z,11.00
2018-08-31T22:34:49.493Z,11.60
2018-08-31T22:37:16.694Z,10.67
2018-08-31T22:39:43.845Z,10.93
2018-08-31T22:42:11.012Z,16.90
2018-08-31T22:44:38.192Z,12.00
2018-08-31T22:47:05.402Z,17.20
2018-08-31T22:49:32.689Z,13.47
2018-08-31T22:51:59.861Z,14.37
2018-08-31T22:54:27.027Z,14.37
2018-08-31T22:56:54.177Z,13.13
2018-08-31T22:59:21.352Z,13.63
2018-08-31T23:01:48.530Z,13.00
2018-08-31T23:04:15.737Z,12.33
2018-08-31T23:06:42.872Z,10.97
2018-08-31T23:09:09.997Z,12.23
2018-08-31T23:11:37.155Z,14.50
2018-08-31T23:14:04.376Z,13.53
2018-08-31T23:16:31.548Z,12.53
2018-08-31T23:18:58.697Z,13.87
2018-08-31T23:21:25.858Z,12.23
2018-08-31T23:23:53.025Z,14.37
2018-08-31T23:26:20.185Z,13.60
2018-08-31T23:28:47.377Z,13.43
2018-08-31T23:31:14.532Z,17.37
2018-08-31T23:33:41.704Z,11.53
2018-08-31T23:36:08.852Z,15.50
2018-08-31T23:38:36.168Z,11.60
2018-08-31T23:41:03.623Z,12.90
2018-08-31T23:43:30.763Z,13.90
2018-08-31T23:45:57.936Z,12.90
2018-08-31T23:48:25.096Z,11.47
2018-08-31T23:50:52.293Z,13.37
2018-08-31T23:53:19.478Z,11.47
2018-08-31T23:55:46.620Z,10.37
2018-08-31T23:58:13.812Z,14.10
